Hauptseite
METAR-TAF:

METAR-TAF

Flughäfen :

Flughafen VC Bird International

Antigua, Antigua und Barbuda

Breite: 17-07N, Länge: 061-47W, Höhe: 8 m

Beobachtung

Neuester Wetterbericht von vor 52 Minuten, um 05:00 UTC
Wind 6 kt aus Ost
Temperatur 27°C
Luftfeuchtigkeit 84%
Luftdruck 1014 hPa
Sichtweite 10 km oder mehr
Leicht bewölkt in der Höhe von 1800 ft

METAR: TAPA 190500Z 08006KT 9999 FEW018 27/24 Q1014 NOSIG

Zeit: 01:52 (05:52 UTC)

Prognose

Neuester Wetterbericht von vor 52 Minuten, um 05:00 UTC
Gültige Prognose vom 19 um 06 UTC bis 20 um 06 UTC
Wind 12 kt aus Ost
Sichtweite 10 km oder mehr
Aufgelockert bewölkt in der Höhe von 1800 ft
Wahrscheinlichkeit 40% :
Zeitweise
vom 19 um 06 UTC bis 19 um 24 UTC
Leicht bewölkt in der Höhe von 1400 ft, Kumulonimbus.
Durchbrochene Bewölkung in der Höhe von 1600 ft
Regenschauer

TAF: TAPA 190500Z 1906/2006 10012KT 9999 SCT018 PROB40 TEMPO 1906/1924 SHRA FEW014CB BKN016

Wetterbeobachtungen und Prognosen von mehr als 4000 Flughäfen (METAR und TAF Bericht).

Die verfügbaren Stationen werden durch gelbe und rote Markierungen auf der Karte dargestellt.

Führen Sie die Maus auf sie, um den Namen der Station zu sehen.

Darauf klicken, um die Beobachtung von Wetterbeobachtungen und Prognosen zu sehen.

Um die Karte zu ändern : klicken Sie auf den grünen Tasten mit einem schwarzen Kreuz Zum Vergrößern, auf den grünen Button mit einem Gedankenstrich zu verkleinern, oder auf die grünen Pfeile für benachbarte Karten.


METAR-TAF: